Time;durP1;ratioP1;P1;durP2;ratioP2;P2;SDS_P1;SDS_P2;PMS_P1;PMS_P2;Temp;Humidity;BMP_temperature;BMP_pressure;BME280_temperature;BME280_humidity;BME280_pressure;Samples;Min_cycle;Max_cycle;Signal;HPM_P1;HPM_P2
2023/01/13 00:00:30;;;;;;;5.88;0.52;;;9.60;99.90;;;;;;6159192;23;20067;-78
2023/01/13 00:02:56;;;;;;;14.10;1.50;;;9.50;99.90;;;;;;6183063;23;20000;-78
2023/01/13 00:05:21;;;;;;;7.50;0.65;;;9.50;99.90;;;;;;6210142;23;20095;-76
2023/01/13 00:07:48;;;;;;;7.63;0.50;;;9.60;99.90;;;;;;6183731;23;20036;-78
2023/01/13 00:10:14;;;;;;;7.15;0.60;;;9.50;99.90;;;;;;6184125;23;20051;-78
2023/01/13 00:12:41;;;;;;;8.52;0.60;;;9.40;99.90;;;;;;6184261;23;20016;-78
2023/01/13 00:15:07;;;;;;;9.90;0.60;;;9.40;99.90;;;;;;6183343;23;20013;-78
2023/01/13 00:17:33;;;;;;;6.45;0.50;;;9.40;99.90;;;;;;6183260;23;20334;-78
2023/01/13 00:19:59;;;;;;;7.40;0.50;;;9.40;99.90;;;;;;6184789;23;20017;-79
2023/01/13 00:22:24;;;;;;;12.70;0.77;;;9.40;99.90;;;;;;6185784;23;20433;-78
2023/01/13 00:24:50;;;;;;;5.47;0.65;;;9.40;99.90;;;;;;6185454;23;20008;-78
2023/01/13 00:27:16;;;;;;;8.85;0.93;;;9.20;99.90;;;;;;6185395;23;20004;-78
2023/01/13 00:29:42;;;;;;;13.68;0.80;;;9.20;99.90;;;;;;6185982;23;20124;-77
2023/01/13 00:32:07;;;;;;;9.80;0.68;;;9.20;99.90;;;;;;6185342;23;20053;-78
2023/01/13 00:34:33;;;;;;;10.57;0.98;;;9.00;99.90;;;;;;6185849;23;20001;-78
2023/01/13 00:36:59;;;;;;;12.43;0.70;;;9.10;99.90;;;;;;6185358;23;20008;-77
2023/01/13 00:39:24;;;;;;;13.50;0.70;;;9.00;99.90;;;;;;6185769;23;20023;-78
2023/01/13 00:44:34;;;;;;;18.88;1.15;;;8.90;99.90;;;;;;6185108;23;20059;-78
2023/01/13 00:47:00;;;;;;;11.35;0.68;;;9.00;99.90;;;;;;6160514;23;20008;-78
2023/01/13 00:49:25;;;;;;;16.13;1.73;;;8.80;99.90;;;;;;6160827;23;20011;-77
2023/01/13 00:51:51;;;;;;;11.25;0.80;;;8.70;99.90;;;;;;6212154;23;20012;-78
2023/01/13 00:54:17;;;;;;;20.25;0.90;;;8.70;99.90;;;;;;6185206;23;20009;-78
2023/01/13 00:56:43;;;;;;;12.75;0.75;;;8.60;99.90;;;;;;6185589;23;20012;-78
2023/01/13 00:59:13;;;;;;;11.75;1.35;;;8.60;99.90;;;;;;6159319;23;20095;-78
2023/01/13 01:01:39;;;;;;;15.25;0.90;;;8.50;99.90;;;;;;6185189;23;20010;-78
2023/01/13 01:04:05;;;;;;;10.55;1.20;;;8.50;99.90;;;;;;6160029;23;20004;-78
2023/01/13 01:06:31;;;;;;;10.13;0.60;;;8.40;99.90;;;;;;6185241;23;20040;-78
2023/01/13 01:08:56;;;;;;;10.73;0.63;;;8.40;99.90;;;;;;6211805;23;20452;-78
2023/01/13 01:11:29;;;;;;;15.20;0.90;;;8.40;99.90;;;;;;6212538;23;20311;-78
2023/01/13 01:13:57;;;;;;;8.93;0.80;;;8.40;99.90;;;;;;6184214;23;20007;-78
2023/01/13 01:16:25;;;;;;;8.73;0.70;;;8.20;99.90;;;;;;6212066;23;20016;-78
2023/01/13 01:18:52;;;;;;;9.77;0.68;;;8.10;99.90;;;;;;6211677;23;20009;-78
2023/01/13 01:21:19;;;;;;;10.15;0.60;;;8.20;99.90;;;;;;6185291;23;20068;-79
2023/01/13 01:23:45;;;;;;;11.77;0.70;;;8.10;99.90;;;;;;6184788;23;20035;-78
2023/01/13 01:26:16;;;;;;;5.72;0.40;;;8.10;99.90;;;;;;6185022;23;20438;-78
2023/01/13 01:28:42;;;;;;;11.05;0.80;;;8.00;99.90;;;;;;6184613;23;20005;-78
2023/01/13 01:31:11;;;;;;;9.88;0.60;;;8.00;99.90;;;;;;6184501;23;20009;-78
2023/01/13 01:33:37;;;;;;;13.35;1.15;;;8.00;99.90;;;;;;6185707;23;20091;-78
2023/01/13 01:36:03;;;;;;;14.50;0.80;;;8.00;99.90;;;;;;6184810;23;20425;-78
2023/01/13 01:38:29;;;;;;;12.48;0.70;;;8.10;99.90;;;;;;6211595;23;20307;-78
2023/01/13 01:40:55;;;;;;;13.45;0.80;;;8.00;99.90;;;;;;6184559;23;20016;-78
2023/01/13 01:46:06;;;;;;;14.20;0.98;;;8.10;99.90;;;;;;6211611;23;20075;-79
2023/01/13 01:48:40;;;;;;;10.02;0.60;;;8.10;99.90;;;;;;6184761;23;20001;-77
2023/01/13 01:51:11;;;;;;;8.48;0.50;;;8.20;99.90;;;;;;6184734;23;20014;-78
2023/01/13 01:53:38;;;;;;;9.82;0.65;;;8.20;99.90;;;;;;6184638;23;20075;-78
2023/01/13 01:56:04;;;;;;;11.82;0.80;;;8.20;99.90;;;;;;6185295;23;20059;-78
2023/01/13 01:58:49;;;;;;;15.73;1.20;;;8.20;99.90;;;;;;6210872;23;20011;-79
2023/01/13 02:01:16;;;;;;;6.68;0.75;;;8.20;99.90;;;;;;6160146;23;20025;-79
2023/01/13 02:03:49;;;;;;;14.07;0.73;;;8.10;99.90;;;;;;6160017;23;20009;-79
2023/01/13 02:06:15;;;;;;;12.27;0.60;;;8.10;99.90;;;;;;6159788;23;20071;-79
2023/01/13 02:08:41;;;;;;;16.38;0.70;;;7.90;99.90;;;;;;6211468;23;20012;-79
2023/01/13 02:12:28;;;;;;;10.80;0.70;;;7.90;99.90;;;;;;6184732;23;20439;-78
2023/01/13 02:13:52;;;;;;;10.45;1.05;;;7.90;99.90;;;;;;6210992;23;20028;-79
2023/01/13 02:16:23;;;;;;;12.77;0.90;;;7.80;99.90;;;;;;6211237;23;20032;-78
2023/01/13 02:19:23;;;;;;;11.63;1.10;;;7.80;99.90;;;;;;6211576;23;20008;-78
2023/01/13 02:22:17;;;;;;;12.07;0.90;;;7.80;99.90;;;;;;6184358;23;20091;-78
2023/01/13 02:25:09;;;;;;;14.40;0.73;;;7.80;99.90;;;;;;6211169;23;20013;-78
2023/01/13 02:28:03;;;;;;;13.80;0.88;;;7.80;99.90;;;;;;6209022;23;20022;-79
2023/01/13 02:33:38;;;;;;;8.05;0.60;;;7.70;99.90;;;;;;6211162;23;20013;-79
2023/01/13 02:36:23;;;;;;;15.77;1.38;;;7.80;99.90;;;;;;6184363;23;20063;-79
2023/01/13 02:38:58;;;;;;;12.75;0.60;;;7.80;99.90;;;;;;6184006;23;20004;-78
2023/01/13 02:44:34;;;;;;;8.95;0.60;;;7.60;99.90;;;;;;6184684;23;20027;-78
2023/01/13 02:47:09;;;;;;;9.45;0.63;;;7.60;99.90;;;;;;6183800;23;20028;-79
2023/01/13 02:49:58;;;;;;;7.50;0.45;;;7.50;99.90;;;;;;6211095;23;20011;-79
2023/01/13 02:52:49;;;;;;;13.77;1.00;;;7.50;99.90;;;;;;6180057;23;20083;-78
2023/01/13 02:55:37;;;;;;;14.80;0.98;;;7.50;99.90;;;;;;6183540;23;20107;-79
2023/01/13 02:58:07;;;;;;;16.45;1.05;;;7.60;99.90;;;;;;6184020;23;20012;-79
2023/01/13 03:00:35;;;;;;;13.75;1.00;;;7.60;99.90;;;;;;6184521;23;20019;-79
2023/01/13 03:03:02;;;;;;;14.60;1.20;;;7.60;99.90;;;;;;6159193;23;20008;-79
2023/01/13 03:05:30;;;;;;;13.02;0.90;;;7.60;99.90;;;;;;6210804;23;20013;-79
2023/01/13 03:08:05;;;;;;;10.38;1.20;;;7.60;99.90;;;;;;6159759;23;20108;-79
2023/01/13 03:10:47;;;;;;;12.52;1.65;;;7.60;99.90;;;;;;6210251;23;20040;-78
2023/01/13 03:13:43;;;;;;;16.25;0.70;;;7.60;99.90;;;;;;6159499;23;20008;-78
2023/01/13 03:16:24;;;;;;;13.43;0.95;;;7.60;99.90;;;;;;6158790;23;20043;-79
2023/01/13 03:19:13;;;;;;;8.60;0.50;;;7.60;99.90;;;;;;6183724;23;20016;-79
2023/01/13 03:21:48;;;;;;;13.30;0.95;;;7.60;99.90;;;;;;6184392;23;20370;-80
2023/01/13 03:24:20;;;;;;;8.80;0.63;;;7.50;99.90;;;;;;6158692;23;20040;-79
2023/01/13 03:27:18;;;;;;;9.27;0.50;;;7.50;99.90;;;;;;6210650;23;20004;-78
2023/01/13 03:30:01;;;;;;;9.27;0.70;;;7.50;99.90;;;;;;6154713;23;20016;-79
2023/01/13 03:32:41;;;;;;;15.68;1.20;;;7.60;99.90;;;;;;6183910;23;20008;-78
2023/01/13 03:35:27;;;;;;;11.38;0.80;;;7.60;99.90;;;;;;6183749;23;20039;-79
2023/01/13 03:38:01;;;;;;;15.50;1.67;;;7.60;99.90;;;;;;6153317;23;20048;-77
2023/01/13 03:40:32;;;;;;;11.32;1.17;;;7.60;99.90;;;;;;6183013;23;20012;-77
2023/01/13 03:46:07;;;;;;;13.65;1.27;;;7.70;99.90;;;;;;6210521;23;20031;-79
2023/01/13 03:48:37;;;;;;;14.68;1.23;;;7.70;99.90;;;;;;6210901;23;20104;-78
2023/01/13 03:51:09;;;;;;;22.48;1.77;;;7.70;99.90;;;;;;6183964;23;20008;-78
2023/01/13 03:53:42;;;;;;;14.35;0.93;;;7.70;99.90;;;;;;6210150;23;20012;-78
2023/01/13 03:56:31;;;;;;;17.15;1.42;;;7.70;99.90;;;;;;6210485;23;20392;-77
2023/01/13 03:58:59;;;;;;;17.73;1.50;;;7.70;99.90;;;;;;6181768;23;20457;-78
2023/01/13 04:01:37;;;;;;;12.77;0.90;;;7.80;99.90;;;;;;6212542;23;20491;-78
2023/01/13 04:04:07;;;;;;;13.45;0.90;;;7.80;99.90;;;;;;6185824;23;20374;-78
2023/01/13 04:06:47;;;;;;;18.43;1.33;;;7.80;99.90;;;;;;6212350;23;20460;-78
2023/01/13 04:09:25;;;;;;;;;;;7.80;99.90;;;;;;6186259;23;20004;-78
2023/01/13 04:12:00;;;;;;;16.55;1.40;;;7.60;99.90;;;;;;6160471;23;19939;-77
2023/01/13 04:14:27;;;;;;;14.77;1.08;;;7.60;99.90;;;;;;6212052;23;20004;-78
2023/01/13 04:16:55;;;;;;;13.93;1.58;;;7.60;99.90;;;;;;6185906;23;20016;-78
2023/01/13 04:19:20;;;;;;;15.32;1.48;;;7.60;99.90;;;;;;6212201;23;20012;-78
2023/01/13 04:21:46;;;;;;;12.57;0.77;;;7.60;99.90;;;;;;6212601;23;20475;-78
2023/01/13 04:24:12;;;;;;;13.68;1.00;;;7.70;99.90;;;;;;6185169;23;20389;-78
2023/01/13 04:26:37;;;;;;;12.77;0.60;;;7.60;99.90;;;;;;6212077;23;20035;-78
2023/01/13 04:29:03;;;;;;;12.82;0.70;;;7.70;99.90;;;;;;6160670;23;20075;-78
2023/01/13 04:31:29;;;;;;;11.52;0.60;;;7.80;99.90;;;;;;6185806;23;20092;-78
2023/01/13 04:33:54;;;;;;;11.05;0.60;;;7.80;99.90;;;;;;6185751;23;20008;-77
2023/01/13 04:36:24;;;;;;;11.48;0.65;;;7.70;99.90;;;;;;6185583;23;20044;-77
2023/01/13 04:38:50;;;;;;;14.60;0.68;;;7.80;99.90;;;;;;6212101;23;20009;-78
2023/01/13 04:41:16;;;;;;;16.30;1.08;;;7.80;99.90;;;;;;6185427;23;20024;-78
2023/01/13 04:43:41;;;;;;;9.38;0.43;;;7.80;99.90;;;;;;6185462;23;20015;-78
2023/01/13 04:46:07;;;;;;;11.07;0.60;;;7.80;99.90;;;;;;6160322;23;20066;-78
2023/01/13 04:48:33;;;;;;;6.93;0.50;;;7.80;99.90;;;;;;6185959;23;20059;-77
2023/01/13 04:50:58;;;;;;;12.63;0.77;;;7.90;99.90;;;;;;6184659;23;20011;-77
2023/01/13 04:53:24;;;;;;;8.07;0.50;;;8.10;99.90;;;;;;6185004;23;20207;-78
2023/01/13 04:55:50;;;;;;;9.27;0.50;;;8.00;99.90;;;;;;6211288;23;20067;-78
2023/01/13 04:58:16;;;;;;;9.38;0.68;;;8.00;99.90;;;;;;6185723;23;20013;-78
2023/01/13 05:00:42;;;;;;;8.80;0.60;;;7.90;99.90;;;;;;6185535;23;20464;-78
2023/01/13 05:03:08;;;;;;;10.15;0.50;;;7.80;99.90;;;;;;6160210;23;20016;-78
2023/01/13 05:05:34;;;;;;;9.15;0.40;;;7.90;99.90;;;;;;6184002;23;20437;-78
2023/01/13 05:08:00;;;;;;;7.72;0.30;;;7.90;99.90;;;;;;6185310;23;20104;-77
2023/01/13 05:10:26;;;;;;;2.97;0.20;;;7.80;99.90;;;;;;6185279;23;20005;-78
2023/01/13 05:18:22;;;;;;;7.57;0.45;;;7.80;99.90;;;;;;6185979;23;20035;-77
2023/01/13 05:20:49;;;;;;;5.90;0.30;;;7.90;99.90;;;;;;6184171;23;20349;-78
2023/01/13 05:25:58;;;;;;;6.35;0.35;;;7.90;99.90;;;;;;6184876;23;20076;-79
2023/01/13 05:28:24;;;;;;;5.53;0.30;;;7.90;99.90;;;;;;6185053;23;20009;-78
2023/01/13 05:30:51;;;;;;;6.53;0.40;;;7.80;99.90;;;;;;6160053;23;20009;-79
2023/01/13 05:33:19;;;;;;;7.78;0.60;;;7.70;99.90;;;;;;6160374;23;20005;-79
2023/01/13 05:35:46;;;;;;;6.78;0.30;;;7.80;99.90;;;;;;6211448;23;20075;-79
2023/01/13 05:38:13;;;;;;;6.68;0.30;;;7.70;99.90;;;;;;6185302;23;20473;-79
2023/01/13 05:43:43;;;;;;;9.98;1.02;;;7.80;99.90;;;;;;6148902;23;20129;-78
2023/01/13 05:46:10;;;;;;;4.50;0.38;;;7.80;99.90;;;;;;6148677;23;20036;-77
2023/01/13 05:48:38;;;;;;;9.98;0.43;;;7.80;99.90;;;;;;6124112;23;20092;-78
2023/01/13 05:51:06;;;;;;;8.27;0.50;;;7.80;99.90;;;;;;6147976;23;20005;-78
2023/01/13 05:53:32;;;;;;;7.30;0.60;;;7.90;99.90;;;;;;6153635;23;20373;-78
2023/01/13 05:55:58;;;;;;;8.95;0.50;;;8.00;99.90;;;;;;6178410;23;20024;-78
2023/01/13 05:58:26;;;;;;;6.80;0.40;;;8.00;99.90;;;;;;6209785;23;20337;-79
2023/01/13 06:00:57;;;;;;;6.95;0.55;;;7.90;99.90;;;;;;6184835;23;20027;-78
2023/01/13 06:03:23;;;;;;;5.20;0.50;;;7.90;99.90;;;;;;6183768;23;20009;-79
2023/01/13 06:05:50;;;;;;;9.80;0.80;;;7.90;99.90;;;;;;6184448;23;20009;-79
2023/01/13 06:08:17;;;;;;;8.32;0.60;;;8.00;99.90;;;;;;6184905;23;20054;-78
2023/01/13 06:10:43;;;;;;;9.02;0.50;;;8.00;99.90;;;;;;6185459;23;20005;-79
2023/01/13 06:13:09;;;;;;;9.30;0.55;;;7.90;99.90;;;;;;6183846;23;20016;-79
2023/01/13 06:15:34;;;;;;;8.85;0.60;;;7.80;99.90;;;;;;6184585;23;20032;-79
2023/01/13 06:18:04;;;;;;;16.17;0.75;;;7.70;99.90;;;;;;6210700;23;20013;-79
2023/01/13 06:20:30;;;;;;;13.48;0.55;;;7.70;99.90;;;;;;6184932;23;20062;-79
2023/01/13 06:22:56;;;;;;;10.88;0.60;;;7.70;99.90;;;;;;6211131;23;20326;-80
2023/01/13 06:25:37;;;;;;;11.30;0.50;;;7.70;99.90;;;;;;6184508;23;20013;-78
2023/01/13 06:28:03;;;;;;;8.48;0.40;;;7.70;99.90;;;;;;6210834;23;20015;-79
2023/01/13 06:30:37;;;;;;;7.82;0.47;;;7.60;99.90;;;;;;6207540;23;20032;-80
2023/01/13 06:33:06;;;;;;;11.77;0.80;;;7.60;99.90;;;;;;6183919;23;20012;-79
2023/01/13 06:35:35;;;;;;;13.73;0.77;;;7.60;99.90;;;;;;6184786;23;20000;-79
2023/01/13 06:38:06;;;;;;;12.30;0.93;;;7.60;99.90;;;;;;6184211;23;20008;-79
2023/01/13 06:40:31;;;;;;;10.13;0.60;;;7.50;99.90;;;;;;6184874;23;20017;-78
2023/01/13 06:43:16;;;;;;;11.10;0.43;;;7.50;99.90;;;;;;6183803;23;20206;-79
2023/01/13 06:45:46;;;;;;;10.68;0.70;;;7.30;99.90;;;;;;6184397;23;20307;-79
2023/01/13 06:48:13;;;;;;;11.40;0.90;;;7.40;99.90;;;;;;6183544;23;20015;-79
2023/01/13 06:50:40;;;;;;;12.25;0.70;;;7.40;99.90;;;;;;6184423;23;20008;-79
2023/01/13 06:53:06;;;;;;;9.38;0.60;;;7.50;99.90;;;;;;6183971;23;20036;-80
2023/01/13 06:55:32;;;;;;;10.70;0.85;;;7.40;99.90;;;;;;6211140;23;20016;-80
2023/01/13 06:57:58;;;;;;;14.27;1.33;;;7.40;99.90;;;;;;6183475;23;20334;-79
2023/01/13 07:00:25;;;;;;;10.27;1.02;;;7.30;99.90;;;;;;6159423;23;20031;-79
2023/01/13 07:02:51;;;;;;;11.02;0.50;;;7.20;99.90;;;;;;6183260;23;20015;-79
2023/01/13 07:05:18;;;;;;;11.73;0.50;;;7.30;99.90;;;;;;6211274;23;20008;-78
2023/01/13 07:07:43;;;;;;;8.90;0.75;;;7.30;99.90;;;;;;6184350;23;20012;-78
2023/01/13 07:10:12;;;;;;;12.60;0.68;;;7.30;99.90;;;;;;6183634;23;20005;-78
2023/01/13 07:15:25;;;;;;;13.05;1.08;;;7.40;99.90;;;;;;6208598;23;20008;-79
2023/01/13 07:17:51;;;;;;;12.38;1.40;;;7.40;99.90;;;;;;6183204;23;20012;-79
2023/01/13 07:20:17;;;;;;;10.57;0.60;;;7.40;99.90;;;;;;6210668;23;20038;-78
2023/01/13 07:22:43;;;;;;;9.02;0.73;;;7.40;99.90;;;;;;6210940;23;20084;-78
2023/01/13 07:25:09;;;;;;;7.40;0.70;;;7.40;99.90;;;;;;6184057;23;20036;-79
2023/01/13 07:27:36;;;;;;;11.82;0.60;;;7.40;99.90;;;;;;6183628;23;20012;-79
2023/01/13 07:30:02;;;;;;;11.05;0.65;;;7.50;99.90;;;;;;6183680;23;20019;-79
2023/01/13 07:32:31;;;;;;;13.45;0.52;;;7.40;99.90;;;;;;6210360;23;20062;-78
2023/01/13 07:35:03;;;;;;;12.63;0.45;;;7.30;99.90;;;;;;6183687;23;20020;-80
2023/01/13 07:37:29;;;;;;;9.70;0.50;;;7.40;99.90;;;;;;6210777;23;20456;-79
2023/01/13 07:39:55;;;;;;;12.20;0.93;;;7.40;99.90;;;;;;6183921;23;20024;-78
2023/01/13 07:45:06;;;;;;;9.43;0.60;;;7.40;99.90;;;;;;6207859;23;20441;-79
2023/01/13 07:47:31;;;;;;;16.15;0.80;;;7.50;99.90;;;;;;6157974;23;20016;-78
2023/01/13 07:49:57;;;;;;;12.50;0.60;;;7.50;99.90;;;;;;6158417;23;20005;-79
2023/01/13 07:52:22;;;;;;;16.60;0.80;;;7.50;99.90;;;;;;6158928;23;20021;-78
2023/01/13 07:54:49;;;;;;;14.43;0.60;;;7.50;99.90;;;;;;6182518;23;20028;-79
2023/01/13 07:57:14;;;;;;;12.93;0.60;;;7.40;99.90;;;;;;6183184;23;20016;-80
2023/01/13 07:59:40;;;;;;;13.73;0.60;;;7.40;99.90;;;;;;6182873;23;20011;-79
2023/01/13 08:02:11;;;;;;;12.65;0.60;;;7.40;99.90;;;;;;6183163;23;20020;-80
2023/01/13 08:04:37;;;;;;;11.20;0.80;;;7.30;99.90;;;;;;6210276;23;20005;-81
2023/01/13 08:07:04;;;;;;;14.77;1.42;;;7.40;99.90;;;;;;6209535;23;20071;-78
2023/01/13 08:09:29;;;;;;;13.02;0.85;;;7.50;99.90;;;;;;6158214;23;20017;-78
2023/01/13 08:14:39;;;;;;;9.88;0.90;;;7.60;99.90;;;;;;6182360;23;20460;-80
2023/01/13 08:17:07;;;;;;;10.85;0.70;;;7.50;99.90;;;;;;6157602;23;20001;-80
2023/01/13 08:19:33;;;;;;;12.50;0.57;;;7.60;99.90;;;;;;6183258;23;20020;-80
2023/01/13 08:21:59;;;;;;;11.45;0.80;;;7.70;99.90;;;;;;6183155;23;20033;-78
2023/01/13 08:24:25;;;;;;;12.40;0.73;;;7.60;99.90;;;;;;6158379;23;20018;-80
2023/01/13 08:26:50;;;;;;;13.05;0.65;;;7.70;99.90;;;;;;6182931;23;20067;-79
2023/01/13 08:29:16;;;;;;;10.07;1.00;;;7.70;99.90;;;;;;6181897;23;20016;-79
2023/01/13 08:31:42;;;;;;;10.88;0.70;;;7.80;99.90;;;;;;6183314;23;20342;-78
2023/01/13 08:34:07;;;;;;;13.45;1.08;;;7.80;99.90;;;;;;6158119;23;20302;-79
2023/01/13 08:36:33;;;;;;;10.38;1.05;;;7.80;99.90;;;;;;6209645;23;20015;-80
2023/01/13 08:38:59;;;;;;;12.05;0.90;;;7.90;99.90;;;;;;6182415;23;20012;-81
2023/01/13 08:44:09;;;;;;;14.90;0.80;;;7.90;99.90;;;;;;6210822;23;20012;-79
2023/01/13 08:46:36;;;;;;;12.48;1.15;;;7.90;99.90;;;;;;6184243;23;20004;-80
2023/01/13 08:49:01;;;;;;;13.88;1.33;;;7.90;99.90;;;;;;6211364;23;20028;-79
2023/01/13 08:51:27;;;;;;;12.65;1.23;;;8.00;99.90;;;;;;6185108;23;20063;-81
2023/01/13 08:53:53;;;;;;;8.50;0.73;;;8.00;99.90;;;;;;6210963;23;20012;-79
2023/01/13 08:56:18;;;;;;;19.92;1.42;;;8.00;99.90;;;;;;6185046;23;20100;-80
2023/01/13 08:58:44;;;;;;;14.80;1.30;;;8.10;99.90;;;;;;6159805;23;20152;-80
2023/01/13 09:01:20;;;;;;;10.20;1.02;;;8.10;99.90;;;;;;6159469;23;20046;-78
2023/01/13 09:03:46;;;;;;;14.70;1.05;;;8.10;99.90;;;;;;6184382;23;20151;-79
2023/01/13 09:06:12;;;;;;;16.58;1.13;;;8.20;99.90;;;;;;6184726;23;20445;-79
2023/01/13 09:08:37;;;;;;;15.55;1.00;;;8.20;99.90;;;;;;6159469;23;20064;-80
2023/01/13 09:13:10;;;;;;;14.75;1.13;;;8.30;99.90;;;;;;6185051;23;20083;-78
2023/01/13 09:13:49;;;;;;;20.55;1.13;;;8.20;99.90;;;;;;6210084;23;20011;-78
2023/01/13 09:16:15;;;;;;;15.15;0.80;;;8.20;99.90;;;;;;6125875;23;20024;-79
2023/01/13 09:18:40;;;;;;;21.80;1.30;;;8.20;99.90;;;;;;6172269;23;20004;-81
2023/01/13 09:21:09;;;;;;;17.63;1.08;;;8.20;99.90;;;;;;6198986;23;20099;-78
2023/01/13 09:23:35;;;;;;;16.65;1.48;;;8.30;99.90;;;;;;6147076;23;20017;-79
2023/01/13 09:26:00;;;;;;;12.82;1.13;;;8.20;99.90;;;;;;6172337;23;20551;-79
2023/01/13 09:28:26;;;;;;;12.93;0.98;;;8.20;99.90;;;;;;6171631;23;20115;-81
2023/01/13 09:30:52;;;;;;;14.50;1.10;;;8.30;99.90;;;;;;6172289;23;20015;-79
2023/01/13 09:36:01;;;;;;;14.20;0.80;;;8.30;99.90;;;;;;6197148;23;20350;-79
2023/01/13 09:38:27;;;;;;;14.52;1.13;;;8.30;99.90;;;;;;6197576;23;20008;-78
2023/01/13 09:40:54;;;;;;;11.80;0.80;;;8.40;99.90;;;;;;6198187;23;20023;-80
2023/01/13 09:46:42;;;;;;;16.83;1.15;;;8.40;99.90;;;;;;6164531;23;20012;-79
2023/01/13 09:49:21;;;;;;;9.38;0.90;;;8.50;99.90;;;;;;6172494;23;20015;-79
2023/01/13 09:52:14;;;;;;;15.50;2.10;;;8.50;99.90;;;;;;6172332;23;20020;-78
2023/01/13 09:55:04;;;;;;;11.25;1.35;;;8.50;99.90;;;;;;6169088;23;20021;-78
2023/01/13 09:57:35;;;;;;;14.93;1.00;;;8.40;99.90;;;;;;6171564;23;20365;-80
2023/01/13 10:00:01;;;;;;;15.13;1.58;;;8.30;99.90;;;;;;6174295;23;20319;-80
2023/01/13 10:02:51;;;;;;;12.27;1.00;;;8.40;99.90;;;;;;6164723;23;20402;-79
2023/01/13 10:05:24;;;;;;;;;;;8.40;99.90;;;;;;6171854;23;20135;-78
2023/01/13 10:07:54;;;;;;;13.95;1.58;;;8.30;99.90;;;;;;6196671;23;20237;-79
2023/01/13 10:10:39;;;;;;;21.13;1.25;;;8.30;99.90;;;;;;6170747;23;20107;-78
2023/01/13 10:13:21;;;;;;;16.77;0.98;;;8.20;99.90;;;;;;6198915;23;20012;-79
2023/01/13 10:16:11;;;;;;;20.00;1.60;;;8.20;99.90;;;;;;6155836;23;20020;-79
2023/01/13 10:18:58;;;;;;;15.10;1.17;;;8.10;99.90;;;;;;6198892;23;20013;-79
2023/01/13 10:21:35;;;;;;;15.75;1.25;;;8.10;99.90;;;;;;6196694;23;20035;-77
2023/01/13 10:24:29;;;;;;;21.17;1.00;;;8.00;99.90;;;;;;6146675;23;20091;-78
2023/01/13 10:27:03;;;;;;;16.48;1.60;;;8.00;99.90;;;;;;6195826;23;20048;-78
2023/01/13 10:29:30;;;;;;;20.10;1.75;;;7.90;99.90;;;;;;6170850;23;20019;-77
2023/01/13 10:31:58;;;;;;;14.27;1.20;;;7.90;99.90;;;;;;6196220;23;20088;-78
2023/01/13 10:34:25;;;;;;;11.52;0.95;;;7.90;99.90;;;;;;6171210;23;20033;-77
2023/01/13 10:37:07;;;;;;;20.67;1.33;;;7.90;99.90;;;;;;6172718;23;20023;-78
2023/01/13 10:39:45;;;;;;;17.02;1.27;;;7.80;99.90;;;;;;6182825;23;20059;-78
2023/01/13 10:42:26;;;;;;;16.17;1.50;;;7.80;99.90;;;;;;6183230;23;20442;-79
2023/01/13 10:45:25;;;;;;;18.70;1.63;;;7.80;99.90;;;;;;6155855;23;20021;-77
2023/01/13 10:48:16;;;;;;;13.35;1.40;;;7.70;99.90;;;;;;6160513;23;20022;-78
2023/01/13 10:51:27;;;;;;;17.48;2.00;;;7.60;99.90;;;;;;6206625;23;20012;-79
2023/01/13 10:54:46;;;;;;;17.42;1.35;;;7.70;99.90;;;;;;6205407;23;20012;-78
2023/01/13 10:58:19;;;;;;;13.80;0.80;;;7.80;99.90;;;;;;6145114;23;20254;-78
2023/01/13 11:01:01;;;;;;;18.33;0.95;;;7.90;99.90;;;;;;6096553;23;20459;-78
2023/01/13 11:04:14;;;;;;;19.33;0.98;;;7.90;99.90;;;;;;6122095;23;20009;-77
2023/01/13 11:06:57;;;;;;;12.13;1.08;;;7.80;99.90;;;;;;6135772;23;20355;-77
2023/01/13 11:10:07;;;;;;;18.38;0.80;;;7.90;99.90;;;;;;6136514;23;20009;-78
2023/01/13 11:13:10;;;;;;;;;;;;;;;;;;;;;
2023/01/13 11:16:19;;;;;;;14.63;0.80;;;8.10;99.90;;;;;;6147257;23;20549;-78
2023/01/13 11:19:39;;;;;;;16.15;0.70;;;8.20;99.90;;;;;;6148090;23;20097;-77
2023/01/13 11:22:56;;;;;;;14.02;1.00;;;8.20;99.90;;;;;;6147318;23;20379;-77
2023/01/13 11:25:59;;;;;;;18.27;1.00;;;8.40;99.90;;;;;;6124117;23;20024;-78
2023/01/13 11:28:54;;;;;;;12.75;1.00;;;8.80;99.90;;;;;;6169645;23;20009;-78
2023/01/13 11:32:01;;;;;;;11.15;1.25;;;8.70;99.90;;;;;;6210518;23;20334;-77
2023/01/13 11:35:08;;;;;;;17.70;1.20;;;8.50;99.90;;;;;;6169996;23;20036;-78
2023/01/13 11:38:46;;;;;;;14.70;1.13;;;8.50;99.90;;;;;;6202256;23;20039;-79
2023/01/13 11:45:43;;;;;;;19.70;1.33;;;8.60;99.90;;;;;;6210267;23;20008;-78
2023/01/13 11:49:01;;;;;;;;;;;;;;;;;;;;;
2023/01/13 11:56:26;;;;;;;11.63;1.48;;;8.60;99.90;;;;;;6130410;23;20022;-80
2023/01/13 11:59:49;;;;;;;14.77;0.63;;;8.50;99.90;;;;;;6135616;23;20036;-78
2023/01/13 12:02:43;;;;;;;9.65;0.82;;;8.50;99.90;;;;;;6093563;23;20030;-78
2023/01/13 12:05:51;;;;;;;15.73;1.35;;;8.50;99.90;;;;;;6147019;23;20497;-79
2023/01/13 12:15:47;;;;;;;18.60;1.75;;;8.40;99.90;;;;;;6059537;23;20014;-78
2023/01/13 12:18:34;;;;;;;;;;;8.30;99.90;;;;;;6037508;23;20099;-79
2023/01/13 12:21:07;;;;;;;20.33;1.35;;;8.10;99.90;;;;;;6058257;23;20029;-77
2023/01/13 12:24:13;;;;;;;13.38;1.02;;;8.10;99.90;;;;;;6119976;23;20092;-78
2023/01/13 12:27:04;;;;;;;13.82;0.73;;;8.20;99.90;;;;;;6119477;23;20462;-78
2023/01/13 12:29:42;;;;;;;16.17;1.35;;;8.10;99.90;;;;;;6119815;23;20017;-77
2023/01/13 12:32:44;;;;;;;14.77;0.93;;;8.20;99.90;;;;;;6119377;23;20018;-78
2023/01/13 12:35:39;;;;;;;17.38;1.27;;;8.40;99.90;;;;;;6118906;23;20435;-77
2023/01/13 12:45:13;;;;;;;18.10;1.20;;;8.70;99.90;;;;;;6118939;23;20347;-78
2023/01/13 12:48:29;;;;;;;12.13;0.80;;;8.60;99.90;;;;;;6122196;23;20109;-77
2023/01/13 12:51:58;;;;;;;16.42;0.77;;;8.70;99.90;;;;;;6183845;23;20035;-78
2023/01/13 12:55:16;;;;;;;15.50;1.15;;;8.60;99.90;;;;;;6207027;23;20349;-77
2023/01/13 12:58:39;;;;;;;17.75;1.42;;;8.70;99.90;;;;;;6188661;23;20017;-77
2023/01/13 13:01:36;;;;;;;15.20;1.25;;;8.50;99.90;;;;;;6130249;23;20041;-78
2023/01/13 13:04:51;;;;;;;15.32;1.08;;;8.30;99.90;;;;;;6184093;23;20008;-78
2023/01/13 13:07:32;;;;;;;24.13;1.02;;;8.20;99.90;;;;;;6186242;23;20012;-77
2023/01/13 13:10:33;;;;;;;15.27;0.90;;;8.10;99.90;;;;;;6211714;23;20008;-78
2023/01/13 13:17:14;;;;;;;18.92;0.88;;;8.10;99.90;;;;;;6211151;23;20009;-78
2023/01/13 13:20:33;;;;;;;15.48;1.10;;;8.10;99.90;;;;;;6158258;23;20044;-77
2023/01/13 13:23:42;;;;;;;11.50;1.25;;;8.00;99.90;;;;;;6187182;23;20092;-78
2023/01/13 13:26:47;;;;;;;20.67;1.25;;;8.10;99.90;;;;;;6208955;23;20095;-78
2023/01/13 13:29:57;;;;;;;20.15;1.48;;;8.10;99.90;;;;;;6161319;23;20143;-78
2023/01/13 13:32:37;;;;;;;16.98;1.00;;;8.20;99.90;;;;;;6210132;23;20414;-79
2023/01/13 13:35:42;;;;;;;18.33;1.58;;;8.20;99.90;;;;;;6160580;23;20012;-77
2023/01/13 13:48:36;;;;;;;15.57;0.80;;;8.30;99.90;;;;;;6210885;23;20004;-77
2023/01/13 13:51:36;;;;;;;14.30;1.08;;;8.40;99.90;;;;;;6184651;23;20011;-78
2023/01/13 13:54:12;;;;;;;14.93;0.73;;;8.50;99.90;;;;;;6181476;23;20036;-78
2023/01/13 13:57:00;;;;;;;15.52;0.90;;;8.40;99.90;;;;;;6210387;23;20016;-78
2023/01/13 13:59:33;;;;;;;17.77;1.20;;;8.50;99.90;;;;;;6210767;23;20019;-78
2023/01/13 14:02:18;;;;;;;12.65;0.60;;;8.50;99.90;;;;;;6159761;23;20095;-78
2023/01/13 14:05:05;;;;;;;15.10;0.93;;;8.60;99.90;;;;;;6209282;23;20062;-78
2023/01/13 14:08:07;;;;;;;10.32;0.70;;;8.60;99.90;;;;;;6181007;23;20040;-78
2023/01/13 14:10:53;;;;;;;12.15;1.10;;;8.60;99.90;;;;;;6154405;23;20520;-78
2023/01/13 14:13:32;;;;;;;18.92;2.30;;;8.60;99.90;;;;;;6209273;23;20016;-79
2023/01/13 14:16:06;;;;;;;16.13;1.42;;;8.60;99.90;;;;;;6184139;23;20035;-79
2023/01/13 14:18:52;;;;;;;17.95;1.23;;;8.60;99.90;;;;;;6173836;23;20031;-79
2023/01/13 14:21:45;;;;;;;13.93;0.60;;;8.60;99.90;;;;;;6211403;23;20017;-79
2023/01/13 14:24:21;;;;;;;15.38;1.20;;;8.70;99.90;;;;;;6184211;23;20016;-80
2023/01/13 14:26:52;;;;;;;14.00;0.95;;;8.70;99.90;;;;;;6183236;23;20009;-78
2023/01/13 14:29:24;;;;;;;12.13;1.65;;;8.70;99.90;;;;;;6159722;23;20019;-81
2023/01/13 14:31:52;;;;;;;13.63;1.35;;;8.70;99.90;;;;;;6208267;23;20052;-80
2023/01/13 14:34:21;;;;;;;11.88;0.95;;;8.70;99.90;;;;;;6211113;23;20004;-80
2023/01/13 14:36:49;;;;;;;15.20;1.00;;;8.70;99.90;;;;;;6181315;23;20107;-79
2023/01/13 14:40:10;;;;;;;10.35;0.70;;;8.70;99.90;;;;;;6183256;23;20013;-79
2023/01/13 14:42:37;;;;;;;16.88;1.05;;;8.80;99.90;;;;;;6170106;23;20458;-78
2023/01/13 14:45:06;;;;;;;15.02;0.80;;;8.70;99.90;;;;;;6183543;23;20004;-80
2023/01/13 14:47:40;;;;;;;16.00;0.80;;;8.80;99.90;;;;;;6182981;23;20080;-78
2023/01/13 14:50:11;;;;;;;13.57;0.68;;;8.70;99.90;;;;;;6182790;23;20064;-78
2023/01/13 14:52:49;;;;;;;13.32;0.90;;;8.80;99.90;;;;;;6159870;23;20012;-79
2023/01/13 14:55:32;;;;;;;13.20;1.15;;;8.70;99.90;;;;;;6210349;23;20115;-78
2023/01/13 14:58:36;;;;;;;11.85;0.70;;;8.70;99.90;;;;;;6158548;23;20000;-79